sensor_id;sensor_type;location;lat;lon;timestamp;P1;durP1;ratioP1;P2;durP2;ratioP2
68821;SDS011;55834;50.870;4.606;2023-04-15T00:00:20;10.90;;;6.23;;
68821;SDS011;55834;50.870;4.606;2023-04-15T00:02:45;10.33;;;5.97;;
68821;SDS011;55834;50.870;4.606;2023-04-15T00:05:12;8.68;;;4.18;;
68821;SDS011;55834;50.870;4.606;2023-04-15T00:07:37;14.43;;;5.47;;
68821;SDS011;55834;50.870;4.606;2023-04-15T00:10:02;9.53;;;5.70;;
68821;SDS011;55834;50.870;4.606;2023-04-15T00:12:29;15.88;;;6.72;;
68821;SDS011;55834;50.870;4.606;2023-04-15T00:14:54;11.38;;;6.22;;
68821;SDS011;55834;50.870;4.606;2023-04-15T00:17:21;14.35;;;7.45;;
68821;SDS011;55834;50.870;4.606;2023-04-15T00:19:46;11.63;;;7.10;;
68821;SDS011;55834;50.870;4.606;2023-04-15T00:22:12;13.13;;;6.70;;
68821;SDS011;55834;50.870;4.606;2023-04-15T00:24:38;13.43;;;6.47;;
68821;SDS011;55834;50.870;4.606;2023-04-15T00:27:03;10.15;;;5.85;;
68821;SDS011;55834;50.870;4.606;2023-04-15T00:29:30;10.32;;;5.93;;
68821;SDS011;55834;50.870;4.606;2023-04-15T00:31:56;13.32;;;5.85;;
68821;SDS011;55834;50.870;4.606;2023-04-15T00:34:22;10.88;;;5.85;;
68821;SDS011;55834;50.870;4.606;2023-04-15T00:36:48;15.18;;;6.75;;
68821;SDS011;55834;50.870;4.606;2023-04-15T00:39:14;11.57;;;5.93;;
68821;SDS011;55834;50.870;4.606;2023-04-15T00:41:40;18.08;;;7.60;;
68821;SDS011;55834;50.870;4.606;2023-04-15T00:44:06;11.48;;;5.75;;
68821;SDS011;55834;50.870;4.606;2023-04-15T00:46:32;8.85;;;6.05;;
68821;SDS011;55834;50.870;4.606;2023-04-15T00:48:59;9.18;;;4.70;;
68821;SDS011;55834;50.870;4.606;2023-04-15T00:51:26;7.57;;;4.18;;
68821;SDS011;55834;50.870;4.606;2023-04-15T00:53:51;5.50;;;3.67;;
68821;SDS011;55834;50.870;4.606;2023-04-15T00:56:18;6.43;;;4.20;;
68821;SDS011;55834;50.870;4.606;2023-04-15T00:58:46;4.78;;;3.45;;
68821;SDS011;55834;50.870;4.606;2023-04-15T01:01:12;5.47;;;3.10;;
68821;SDS011;55834;50.870;4.606;2023-04-15T01:03:37;7.90;;;3.97;;
68821;SDS011;55834;50.870;4.606;2023-04-15T01:06:02;6.72;;;3.97;;
68821;SDS011;55834;50.870;4.606;2023-04-15T01:08:28;4.10;;;2.97;;
68821;SDS011;55834;50.870;4.606;2023-04-15T01:10:55;4.93;;;3.17;;
68821;SDS011;55834;50.870;4.606;2023-04-15T01:13:22;3.53;;;3.00;;
68821;SDS011;55834;50.870;4.606;2023-04-15T01:15:48;4.80;;;2.95;;
68821;SDS011;55834;50.870;4.606;2023-04-15T01:18:14;3.75;;;3.45;;
68821;SDS011;55834;50.870;4.606;2023-04-15T01:20:40;5.18;;;3.35;;
68821;SDS011;55834;50.870;4.606;2023-04-15T01:23:05;6.43;;;4.68;;
68821;SDS011;55834;50.870;4.606;2023-04-15T01:25:31;7.50;;;3.40;;
68821;SDS011;55834;50.870;4.606;2023-04-15T01:27:58;5.35;;;3.60;;
68821;SDS011;55834;50.870;4.606;2023-04-15T01:30:23;4.85;;;3.67;;
68821;SDS011;55834;50.870;4.606;2023-04-15T01:32:49;5.53;;;4.05;;
68821;SDS011;55834;50.870;4.606;2023-04-15T01:35:15;4.50;;;3.90;;
68821;SDS011;55834;50.870;4.606;2023-04-15T01:37:41;5.97;;;3.80;;
68821;SDS011;55834;50.870;4.606;2023-04-15T01:40:06;6.67;;;3.97;;
68821;SDS011;55834;50.870;4.606;2023-04-15T01:42:33;6.60;;;3.83;;
68821;SDS011;55834;50.870;4.606;2023-04-15T01:45:00;5.72;;;2.97;;
68821;SDS011;55834;50.870;4.606;2023-04-15T01:47:26;4.70;;;3.08;;
68821;SDS011;55834;50.870;4.606;2023-04-15T01:49:51;4.80;;;3.38;;
68821;SDS011;55834;50.870;4.606;2023-04-15T01:52:17;3.80;;;2.35;;
68821;SDS011;55834;50.870;4.606;2023-04-15T01:54:42;3.73;;;2.83;;
68821;SDS011;55834;50.870;4.606;2023-04-15T01:57:08;2.97;;;2.63;;
68821;SDS011;55834;50.870;4.606;2023-04-15T01:59:33;5.60;;;3.60;;
68821;SDS011;55834;50.870;4.606;2023-04-15T02:01:59;3.80;;;3.15;;
68821;SDS011;55834;50.870;4.606;2023-04-15T02:04:25;3.97;;;2.75;;
68821;SDS011;55834;50.870;4.606;2023-04-15T02:06:51;4.95;;;3.17;;
68821;SDS011;55834;50.870;4.606;2023-04-15T02:09:17;4.05;;;2.97;;
68821;SDS011;55834;50.870;4.606;2023-04-15T02:11:42;3.00;;;2.67;;
68821;SDS011;55834;50.870;4.606;2023-04-15T02:14:08;3.70;;;2.90;;
68821;SDS011;55834;50.870;4.606;2023-04-15T02:16:33;5.33;;;3.23;;
68821;SDS011;55834;50.870;4.606;2023-04-15T02:18:59;3.53;;;2.83;;
68821;SDS011;55834;50.870;4.606;2023-04-15T02:21:27;5.55;;;3.17;;
68821;SDS011;55834;50.870;4.606;2023-04-15T02:23:52;4.47;;;3.05;;
68821;SDS011;55834;50.870;4.606;2023-04-15T02:26:18;4.57;;;2.77;;
68821;SDS011;55834;50.870;4.606;2023-04-15T02:28:44;4.05;;;2.60;;
68821;SDS011;55834;50.870;4.606;2023-04-15T02:31:10;3.53;;;3.13;;
68821;SDS011;55834;50.870;4.606;2023-04-15T02:33:36;3.30;;;2.73;;
68821;SDS011;55834;50.870;4.606;2023-04-15T02:36:01;6.75;;;3.55;;
68821;SDS011;55834;50.870;4.606;2023-04-15T02:38:27;6.80;;;3.83;;
68821;SDS011;55834;50.870;4.606;2023-04-15T02:40:53;4.05;;;2.90;;
68821;SDS011;55834;50.870;4.606;2023-04-15T02:43:18;4.40;;;3.30;;
68821;SDS011;55834;50.870;4.606;2023-04-15T02:45:44;3.93;;;3.50;;
68821;SDS011;55834;50.870;4.606;2023-04-15T02:48:11;4.68;;;3.47;;
68821;SDS011;55834;50.870;4.606;2023-04-15T02:50:36;5.00;;;3.30;;
68821;SDS011;55834;50.870;4.606;2023-04-15T02:53:03;4.25;;;3.13;;
68821;SDS011;55834;50.870;4.606;2023-04-15T02:55:29;5.53;;;3.58;;
68821;SDS011;55834;50.870;4.606;2023-04-15T02:57:55;5.45;;;3.63;;
68821;SDS011;55834;50.870;4.606;2023-04-15T03:00:22;5.65;;;3.13;;
68821;SDS011;55834;50.870;4.606;2023-04-15T03:02:49;4.70;;;3.38;;
68821;SDS011;55834;50.870;4.606;2023-04-15T03:05:20;5.20;;;3.65;;
68821;SDS011;55834;50.870;4.606;2023-04-15T03:07:48;6.20;;;3.20;;
68821;SDS011;55834;50.870;4.606;2023-04-15T03:10:14;3.72;;;3.28;;
68821;SDS011;55834;50.870;4.606;2023-04-15T03:12:39;3.42;;;3.10;;
68821;SDS011;55834;50.870;4.606;2023-04-15T03:15:05;5.75;;;4.40;;
68821;SDS011;55834;50.870;4.606;2023-04-15T03:17:33;4.97;;;4.50;;
68821;SDS011;55834;50.870;4.606;2023-04-15T03:19:58;5.15;;;3.55;;
68821;SDS011;55834;50.870;4.606;2023-04-15T03:22:23;3.37;;;3.07;;
68821;SDS011;55834;50.870;4.606;2023-04-15T03:24:50;4.35;;;3.88;;
68821;SDS011;55834;50.870;4.606;2023-04-15T03:27:15;5.37;;;3.40;;
68821;SDS011;55834;50.870;4.606;2023-04-15T03:29:41;5.17;;;3.50;;
68821;SDS011;55834;50.870;4.606;2023-04-15T03:32:06;4.60;;;3.33;;
68821;SDS011;55834;50.870;4.606;2023-04-15T03:34:31;5.40;;;3.87;;
68821;SDS011;55834;50.870;4.606;2023-04-15T03:36:57;4.20;;;3.80;;
68821;SDS011;55834;50.870;4.606;2023-04-15T03:39:22;4.97;;;3.43;;
68821;SDS011;55834;50.870;4.606;2023-04-15T03:41:48;4.35;;;3.13;;
68821;SDS011;55834;50.870;4.606;2023-04-15T03:44:13;3.90;;;3.43;;
68821;SDS011;55834;50.870;4.606;2023-04-15T03:46:38;5.70;;;4.13;;
68821;SDS011;55834;50.870;4.606;2023-04-15T03:49:05;8.80;;;4.37;;
68821;SDS011;55834;50.870;4.606;2023-04-15T03:53:56;5.10;;;4.03;;
68821;SDS011;55834;50.870;4.606;2023-04-15T03:56:22;6.88;;;4.55;;
68821;SDS011;55834;50.870;4.606;2023-04-15T03:58:48;4.97;;;3.80;;
68821;SDS011;55834;50.870;4.606;2023-04-15T04:01:13;6.83;;;3.67;;
68821;SDS011;55834;50.870;4.606;2023-04-15T04:03:39;6.88;;;4.55;;
68821;SDS011;55834;50.870;4.606;2023-04-15T04:06:04;7.43;;;4.53;;
68821;SDS011;55834;50.870;4.606;2023-04-15T04:08:30;4.93;;;4.18;;
68821;SDS011;55834;50.870;4.606;2023-04-15T04:10:55;6.77;;;4.37;;
68821;SDS011;55834;50.870;4.606;2023-04-15T04:13:21;6.07;;;4.10;;
68821;SDS011;55834;50.870;4.606;2023-04-15T04:15:46;5.10;;;4.10;;
68821;SDS011;55834;50.870;4.606;2023-04-15T04:18:11;4.50;;;4.07;;
68821;SDS011;55834;50.870;4.606;2023-04-15T04:20:37;5.77;;;4.17;;
68821;SDS011;55834;50.870;4.606;2023-04-15T04:23:02;4.72;;;4.25;;
68821;SDS011;55834;50.870;4.606;2023-04-15T04:25:27;8.47;;;4.33;;
68821;SDS011;55834;50.870;4.606;2023-04-15T04:27:53;4.87;;;4.33;;
68821;SDS011;55834;50.870;4.606;2023-04-15T04:30:18;6.70;;;3.97;;
68821;SDS011;55834;50.870;4.606;2023-04-15T04:32:43;7.83;;;4.17;;
68821;SDS011;55834;50.870;4.606;2023-04-15T04:35:09;5.28;;;4.13;;
68821;SDS011;55834;50.870;4.606;2023-04-15T04:37:35;6.28;;;4.80;;
68821;SDS011;55834;50.870;4.606;2023-04-15T04:40:00;5.75;;;5.25;;
68821;SDS011;55834;50.870;4.606;2023-04-15T04:42:26;6.03;;;4.07;;
68821;SDS011;55834;50.870;4.606;2023-04-15T04:44:51;8.20;;;4.60;;
68821;SDS011;55834;50.870;4.606;2023-04-15T04:47:16;4.70;;;4.20;;
68821;SDS011;55834;50.870;4.606;2023-04-15T04:49:42;6.25;;;4.38;;
68821;SDS011;55834;50.870;4.606;2023-04-15T04:52:07;5.00;;;4.47;;
68821;SDS011;55834;50.870;4.606;2023-04-15T04:54:33;8.45;;;4.53;;
68821;SDS011;55834;50.870;4.606;2023-04-15T04:56:58;7.13;;;5.67;;
68821;SDS011;55834;50.870;4.606;2023-04-15T04:59:24;6.28;;;4.57;;
68821;SDS011;55834;50.870;4.606;2023-04-15T05:01:49;10.60;;;4.72;;
68821;SDS011;55834;50.870;4.606;2023-04-15T05:04:15;4.93;;;4.25;;
68821;SDS011;55834;50.870;4.606;2023-04-15T05:06:40;7.47;;;5.07;;
68821;SDS011;55834;50.870;4.606;2023-04-15T05:09:06;5.47;;;4.83;;
68821;SDS011;55834;50.870;4.606;2023-04-15T05:11:32;7.45;;;5.03;;
68821;SDS011;55834;50.870;4.606;2023-04-15T05:13:57;10.20;;;5.22;;
68821;SDS011;55834;50.870;4.606;2023-04-15T05:16:25;10.30;;;6.85;;
68821;SDS011;55834;50.870;4.606;2023-04-15T05:18:50;7.05;;;5.07;;
68821;SDS011;55834;50.870;4.606;2023-04-15T05:21:16;6.15;;;4.68;;
68821;SDS011;55834;50.870;4.606;2023-04-15T05:23:41;6.55;;;5.70;;
68821;SDS011;55834;50.870;4.606;2023-04-15T05:26:07;5.80;;;5.20;;
68821;SDS011;55834;50.870;4.606;2023-04-15T05:28:33;7.10;;;4.78;;
68821;SDS011;55834;50.870;4.606;2023-04-15T05:30:58;8.20;;;5.43;;
68821;SDS011;55834;50.870;4.606;2023-04-15T05:33:23;10.50;;;5.37;;
68821;SDS011;55834;50.870;4.606;2023-04-15T05:35:49;7.90;;;5.27;;
68821;SDS011;55834;50.870;4.606;2023-04-15T05:38:14;9.05;;;5.88;;
68821;SDS011;55834;50.870;4.606;2023-04-15T05:40:40;8.70;;;4.47;;
68821;SDS011;55834;50.870;4.606;2023-04-15T05:43:05;6.80;;;4.25;;
68821;SDS011;55834;50.870;4.606;2023-04-15T05:45:30;7.13;;;4.75;;
68821;SDS011;55834;50.870;4.606;2023-04-15T05:47:56;8.38;;;4.82;;
68821;SDS011;55834;50.870;4.606;2023-04-15T05:50:21;7.20;;;4.68;;
68821;SDS011;55834;50.870;4.606;2023-04-15T05:52:48;6.65;;;4.15;;
68821;SDS011;55834;50.870;4.606;2023-04-15T05:55:13;9.63;;;5.07;;
68821;SDS011;55834;50.870;4.606;2023-04-15T05:57:39;8.20;;;5.20;;
68821;SDS011;55834;50.870;4.606;2023-04-15T06:00:04;6.57;;;4.55;;
68821;SDS011;55834;50.870;4.606;2023-04-15T06:02:30;8.88;;;5.13;;
68821;SDS011;55834;50.870;4.606;2023-04-15T06:04:56;8.73;;;4.90;;
68821;SDS011;55834;50.870;4.606;2023-04-15T06:07:22;6.97;;;4.30;;
68821;SDS011;55834;50.870;4.606;2023-04-15T06:09:48;5.95;;;4.13;;
68821;SDS011;55834;50.870;4.606;2023-04-15T06:12:13;8.43;;;4.10;;
68821;SDS011;55834;50.870;4.606;2023-04-15T06:14:39;8.75;;;5.00;;
68821;SDS011;55834;50.870;4.606;2023-04-15T06:17:05;6.35;;;4.25;;
68821;SDS011;55834;50.870;4.606;2023-04-15T06:19:31;7.63;;;4.50;;
68821;SDS011;55834;50.870;4.606;2023-04-15T06:21:57;6.65;;;4.00;;
68821;SDS011;55834;50.870;4.606;2023-04-15T06:24:23;8.07;;;4.18;;
68821;SDS011;55834;50.870;4.606;2023-04-15T06:26:48;5.93;;;3.75;;
68821;SDS011;55834;50.870;4.606;2023-04-15T06:29:20;8.93;;;4.97;;
68821;SDS011;55834;50.870;4.606;2023-04-15T06:31:46;5.55;;;4.15;;
68821;SDS011;55834;50.870;4.606;2023-04-15T06:34:13;6.72;;;4.97;;
68821;SDS011;55834;50.870;4.606;2023-04-15T06:36:38;5.50;;;4.20;;
68821;SDS011;55834;50.870;4.606;2023-04-15T06:39:04;7.60;;;4.17;;
68821;SDS011;55834;50.870;4.606;2023-04-15T06:41:29;7.67;;;4.93;;
68821;SDS011;55834;50.870;4.606;2023-04-15T06:43:54;8.02;;;4.82;;
68821;SDS011;55834;50.870;4.606;2023-04-15T06:46:20;8.50;;;4.65;;
68821;SDS011;55834;50.870;4.606;2023-04-15T06:48:46;6.95;;;4.75;;
68821;SDS011;55834;50.870;4.606;2023-04-15T06:51:11;7.30;;;5.10;;
68821;SDS011;55834;50.870;4.606;2023-04-15T06:53:36;8.23;;;4.03;;
68821;SDS011;55834;50.870;4.606;2023-04-15T06:56:05;6.32;;;4.63;;
68821;SDS011;55834;50.870;4.606;2023-04-15T06:58:32;7.13;;;4.43;;
68821;SDS011;55834;50.870;4.606;2023-04-15T07:00:57;7.13;;;4.97;;
68821;SDS011;55834;50.870;4.606;2023-04-15T07:03:23;8.13;;;4.85;;
68821;SDS011;55834;50.870;4.606;2023-04-15T07:05:48;10.05;;;4.55;;
68821;SDS011;55834;50.870;4.606;2023-04-15T07:08:14;6.87;;;5.07;;
68821;SDS011;55834;50.870;4.606;2023-04-15T07:10:39;8.37;;;5.07;;
68821;SDS011;55834;50.870;4.606;2023-04-15T07:13:05;8.90;;;5.80;;
68821;SDS011;55834;50.870;4.606;2023-04-15T07:15:32;8.60;;;4.82;;
68821;SDS011;55834;50.870;4.606;2023-04-15T07:17:58;9.05;;;5.53;;
68821;SDS011;55834;50.870;4.606;2023-04-15T07:20:23;6.67;;;4.67;;
68821;SDS011;55834;50.870;4.606;2023-04-15T07:22:49;8.20;;;4.55;;
68821;SDS011;55834;50.870;4.606;2023-04-15T07:25:14;10.53;;;5.60;;
68821;SDS011;55834;50.870;4.606;2023-04-15T07:27:39;9.93;;;5.77;;
68821;SDS011;55834;50.870;4.606;2023-04-15T07:30:05;8.45;;;5.38;;
68821;SDS011;55834;50.870;4.606;2023-04-15T07:32:31;8.35;;;5.10;;
68821;SDS011;55834;50.870;4.606;2023-04-15T07:34:56;6.83;;;4.53;;
68821;SDS011;55834;50.870;4.606;2023-04-15T07:37:22;8.98;;;5.10;;
68821;SDS011;55834;50.870;4.606;2023-04-15T07:39:48;8.40;;;5.93;;
68821;SDS011;55834;50.870;4.606;2023-04-15T07:42:13;9.27;;;6.30;;
68821;SDS011;55834;50.870;4.606;2023-04-15T07:44:39;9.15;;;5.97;;
68821;SDS011;55834;50.870;4.606;2023-04-15T07:47:04;12.07;;;6.85;;
68821;SDS011;55834;50.870;4.606;2023-04-15T07:49:30;8.60;;;6.22;;
68821;SDS011;55834;50.870;4.606;2023-04-15T07:51:55;8.02;;;6.22;;
68821;SDS011;55834;50.870;4.606;2023-04-15T07:54:21;14.40;;;7.25;;
68821;SDS011;55834;50.870;4.606;2023-04-15T07:56:47;10.90;;;5.50;;
68821;SDS011;55834;50.870;4.606;2023-04-15T07:59:13;8.90;;;5.73;;
68821;SDS011;55834;50.870;4.606;2023-04-15T08:01:41;13.25;;;7.90;;
68821;SDS011;55834;50.870;4.606;2023-04-15T08:04:08;7.90;;;5.97;;
68821;SDS011;55834;50.870;4.606;2023-04-15T08:06:33;9.30;;;7.18;;
68821;SDS011;55834;50.870;4.606;2023-04-15T08:08:58;7.93;;;6.35;;
68821;SDS011;55834;50.870;4.606;2023-04-15T08:11:24;9.30;;;7.93;;
68821;SDS011;55834;50.870;4.606;2023-04-15T08:13:51;13.57;;;8.20;;
68821;SDS011;55834;50.870;4.606;2023-04-15T08:18:42;7.80;;;6.15;;
68821;SDS011;55834;50.870;4.606;2023-04-15T08:21:08;8.63;;;6.50;;
68821;SDS011;55834;50.870;4.606;2023-04-15T08:23:34;11.85;;;5.57;;
68821;SDS011;55834;50.870;4.606;2023-04-15T08:26:00;8.93;;;5.93;;
68821;SDS011;55834;50.870;4.606;2023-04-15T08:28:25;12.88;;;7.10;;
68821;SDS011;55834;50.870;4.606;2023-04-15T08:30:54;10.35;;;6.22;;
68821;SDS011;55834;50.870;4.606;2023-04-15T08:33:19;8.52;;;5.45;;
68821;SDS011;55834;50.870;4.606;2023-04-15T08:35:45;9.13;;;5.50;;
68821;SDS011;55834;50.870;4.606;2023-04-15T08:38:10;9.50;;;6.40;;
68821;SDS011;55834;50.870;4.606;2023-04-15T08:40:42;8.30;;;4.40;;
68821;SDS011;55834;50.870;4.606;2023-04-15T08:45:37;6.65;;;5.43;;
68821;SDS011;55834;50.870;4.606;2023-04-15T08:48:03;11.02;;;4.63;;
68821;SDS011;55834;50.870;4.606;2023-04-15T08:50:30;9.13;;;3.92;;
68821;SDS011;55834;50.870;4.606;2023-04-15T08:52:57;5.85;;;4.28;;
68821;SDS011;55834;50.870;4.606;2023-04-15T08:55:24;9.77;;;5.07;;
68821;SDS011;55834;50.870;4.606;2023-04-15T08:57:54;5.57;;;4.55;;
68821;SDS011;55834;50.870;4.606;2023-04-15T09:00:20;8.75;;;5.00;;
68821;SDS011;55834;50.870;4.606;2023-04-15T09:02:46;4.72;;;4.07;;
68821;SDS011;55834;50.870;4.606;2023-04-15T09:05:12;7.45;;;5.22;;
68821;SDS011;55834;50.870;4.606;2023-04-15T09:07:37;7.63;;;5.75;;
68821;SDS011;55834;50.870;4.606;2023-04-15T09:10:03;8.07;;;5.27;;
68821;SDS011;55834;50.870;4.606;2023-04-15T09:12:28;7.93;;;6.03;;
68821;SDS011;55834;50.870;4.606;2023-04-15T09:14:54;8.80;;;5.75;;
68821;SDS011;55834;50.870;4.606;2023-04-15T09:17:19;9.40;;;5.15;;
68821;SDS011;55834;50.870;4.606;2023-04-15T09:19:45;6.80;;;4.95;;
68821;SDS011;55834;50.870;4.606;2023-04-15T09:22:11;8.27;;;5.40;;
68821;SDS011;55834;50.870;4.606;2023-04-15T09:24:37;8.32;;;5.38;;
68821;SDS011;55834;50.870;4.606;2023-04-15T09:27:05;8.18;;;5.47;;
68821;SDS011;55834;50.870;4.606;2023-04-15T09:29:30;10.57;;;5.20;;
68821;SDS011;55834;50.870;4.606;2023-04-15T09:31:56;6.22;;;4.50;;
68821;SDS011;55834;50.870;4.606;2023-04-15T09:34:36;6.93;;;4.72;;
68821;SDS011;55834;50.870;4.606;2023-04-15T09:37:02;4.72;;;3.70;;
68821;SDS011;55834;50.870;4.606;2023-04-15T09:39:37;8.77;;;4.93;;
68821;SDS011;55834;50.870;4.606;2023-04-15T09:42:09;5.63;;;4.43;;
68821;SDS011;55834;50.870;4.606;2023-04-15T09:44:35;6.68;;;3.78;;
68821;SDS011;55834;50.870;4.606;2023-04-15T09:47:01;8.18;;;4.97;;
68821;SDS011;55834;50.870;4.606;2023-04-15T09:49:27;7.13;;;4.20;;
68821;SDS011;55834;50.870;4.606;2023-04-15T09:51:56;6.13;;;4.30;;
68821;SDS011;55834;50.870;4.606;2023-04-15T09:54:24;6.38;;;4.50;;
68821;SDS011;55834;50.870;4.606;2023-04-15T09:56:49;9.43;;;4.90;;
68821;SDS011;55834;50.870;4.606;2023-04-15T09:59:14;7.33;;;4.50;;
68821;SDS011;55834;50.870;4.606;2023-04-15T10:01:40;6.45;;;4.53;;
68821;SDS011;55834;50.870;4.606;2023-04-15T10:04:06;7.35;;;4.50;;
68821;SDS011;55834;50.870;4.606;2023-04-15T10:06:33;6.28;;;4.53;;
68821;SDS011;55834;50.870;4.606;2023-04-15T10:08:58;6.75;;;3.95;;
68821;SDS011;55834;50.870;4.606;2023-04-15T10:11:28;4.88;;;3.15;;
68821;SDS011;55834;50.870;4.606;2023-04-15T10:13:54;4.53;;;3.38;;
68821;SDS011;55834;50.870;4.606;2023-04-15T10:16:20;6.70;;;4.22;;
68821;SDS011;55834;50.870;4.606;2023-04-15T10:18:50;4.95;;;3.45;;
68821;SDS011;55834;50.870;4.606;2023-04-15T10:21:19;4.35;;;3.88;;
68821;SDS011;55834;50.870;4.606;2023-04-15T10:26:12;7.20;;;4.28;;
68821;SDS011;55834;50.870;4.606;2023-04-15T10:28:39;5.97;;;3.63;;
68821;SDS011;55834;50.870;4.606;2023-04-15T10:31:04;3.70;;;2.90;;
68821;SDS011;55834;50.870;4.606;2023-04-15T10:33:31;3.83;;;2.40;;
68821;SDS011;55834;50.870;4.606;2023-04-15T10:35:58;3.03;;;2.40;;
68821;SDS011;55834;50.870;4.606;2023-04-15T10:38:39;2.33;;;1.80;;
68821;SDS011;55834;50.870;4.606;2023-04-15T10:41:16;2.55;;;2.13;;
68821;SDS011;55834;50.870;4.606;2023-04-15T10:43:47;2.92;;;1.80;;
68821;SDS011;55834;50.870;4.606;2023-04-15T10:46:12;3.88;;;2.28;;
68821;SDS011;55834;50.870;4.606;2023-04-15T10:48:44;3.58;;;2.53;;
68821;SDS011;55834;50.870;4.606;2023-04-15T10:51:12;3.97;;;3.15;;
68821;SDS011;55834;50.870;4.606;2023-04-15T10:53:38;3.42;;;2.28;;
68821;SDS011;55834;50.870;4.606;2023-04-15T10:56:06;3.63;;;2.78;;
68821;SDS011;55834;50.870;4.606;2023-04-15T10:58:41;5.50;;;3.45;;
68821;SDS011;55834;50.870;4.606;2023-04-15T11:01:07;2.38;;;1.70;;
68821;SDS011;55834;50.870;4.606;2023-04-15T11:03:35;3.28;;;2.67;;
68821;SDS011;55834;50.870;4.606;2023-04-15T11:06:05;4.45;;;3.85;;
68821;SDS011;55834;50.870;4.606;2023-04-15T11:14:32;3.70;;;2.80;;
68821;SDS011;55834;50.870;4.606;2023-04-15T11:16:59;4.20;;;2.25;;
68821;SDS011;55834;50.870;4.606;2023-04-15T11:19:25;2.67;;;2.38;;
68821;SDS011;55834;50.870;4.606;2023-04-15T11:21:51;5.88;;;2.67;;
68821;SDS011;55834;50.870;4.606;2023-04-15T11:24:25;3.97;;;2.70;;
68821;SDS011;55834;50.870;4.606;2023-04-15T11:26:56;2.45;;;2.25;;
68821;SDS011;55834;50.870;4.606;2023-04-15T11:29:22;3.75;;;3.13;;
68821;SDS011;55834;50.870;4.606;2023-04-15T11:32:00;3.92;;;3.42;;
68821;SDS011;55834;50.870;4.606;2023-04-15T11:34:28;3.67;;;2.65;;
68821;SDS011;55834;50.870;4.606;2023-04-15T11:36:57;4.05;;;2.90;;
68821;SDS011;55834;50.870;4.606;2023-04-15T11:39:22;4.95;;;3.28;;
68821;SDS011;55834;50.870;4.606;2023-04-15T11:41:48;3.60;;;3.30;;
68821;SDS011;55834;50.870;4.606;2023-04-15T11:44:16;4.63;;;3.57;;
68821;SDS011;55834;50.870;4.606;2023-04-15T11:46:42;5.07;;;3.38;;
68821;SDS011;55834;50.870;4.606;2023-04-15T11:49:07;3.83;;;3.47;;
68821;SDS011;55834;50.870;4.606;2023-04-15T11:51:33;4.43;;;3.40;;
68821;SDS011;55834;50.870;4.606;2023-04-15T11:53:59;3.00;;;2.70;;
68821;SDS011;55834;50.870;4.606;2023-04-15T11:56:25;3.65;;;2.80;;
68821;SDS011;55834;50.870;4.606;2023-04-15T11:58:55;5.30;;;2.40;;
68821;SDS011;55834;50.870;4.606;2023-04-15T12:01:32;2.50;;;1.92;;
68821;SDS011;55834;50.870;4.606;2023-04-15T12:03:59;3.15;;;1.70;;
68821;SDS011;55834;50.870;4.606;2023-04-15T12:06:28;2.35;;;2.15;;
68821;SDS011;55834;50.870;4.606;2023-04-15T12:11:41;3.08;;;1.40;;
68821;SDS011;55834;50.870;4.606;2023-04-15T12:17:06;2.55;;;2.25;;
68821;SDS011;55834;50.870;4.606;2023-04-15T12:19:41;1.65;;;1.55;;
68821;SDS011;55834;50.870;4.606;2023-04-15T12:22:10;2.58;;;2.25;;
68821;SDS011;55834;50.870;4.606;2023-04-15T12:24:38;2.90;;;2.25;;
68821;SDS011;55834;50.870;4.606;2023-04-15T12:27:05;3.90;;;2.53;;
68821;SDS011;55834;50.870;4.606;2023-04-15T12:29:32;3.03;;;2.38;;
68821;SDS011;55834;50.870;4.606;2023-04-15T12:32:06;4.97;;;2.33;;
68821;SDS011;55834;50.870;4.606;2023-04-15T12:34:34;2.85;;;1.23;;
68821;SDS011;55834;50.870;4.606;2023-04-15T12:37:04;1.40;;;1.30;;
68821;SDS011;55834;50.870;4.606;2023-04-15T12:39:34;1.10;;;1.00;;
68821;SDS011;55834;50.870;4.606;2023-04-15T12:42:01;1.55;;;1.45;;
68821;SDS011;55834;50.870;4.606;2023-04-15T12:44:27;1.35;;;1.25;;
68821;SDS011;55834;50.870;4.606;2023-04-15T12:46:53;1.23;;;1.13;;
68821;SDS011;55834;50.870;4.606;2023-04-15T12:49:22;1.17;;;1.08;;
68821;SDS011;55834;50.870;4.606;2023-04-15T12:51:48;2.70;;;0.93;;
68821;SDS011;55834;50.870;4.606;2023-04-15T12:54:15;2.40;;;1.10;;
68821;SDS011;55834;50.870;4.606;2023-04-15T12:56:42;2.95;;;1.63;;
68821;SDS011;55834;50.870;4.606;2023-04-15T12:59:08;3.33;;;2.53;;
68821;SDS011;55834;50.870;4.606;2023-04-15T13:01:33;6.27;;;2.57;;
68821;SDS011;55834;50.870;4.606;2023-04-15T13:03:59;3.60;;;2.05;;
68821;SDS011;55834;50.870;4.606;2023-04-15T13:06:24;3.22;;;1.95;;
68821;SDS011;55834;50.870;4.606;2023-04-15T13:08:50;2.15;;;1.92;;
68821;SDS011;55834;50.870;4.606;2023-04-15T13:11:15;3.15;;;1.73;;
68821;SDS011;55834;50.870;4.606;2023-04-15T13:13:42;2.03;;;1.63;;
68821;SDS011;55834;50.870;4.606;2023-04-15T13:16:07;3.35;;;1.98;;
68821;SDS011;55834;50.870;4.606;2023-04-15T13:18:33;2.42;;;2.00;;
68821;SDS011;55834;50.870;4.606;2023-04-15T13:20:59;2.90;;;1.55;;
68821;SDS011;55834;50.870;4.606;2023-04-15T13:23:25;1.60;;;1.17;;
68821;SDS011;55834;50.870;4.606;2023-04-15T13:25:50;4.05;;;2.00;;
68821;SDS011;55834;50.870;4.606;2023-04-15T13:28:16;1.30;;;1.20;;
68821;SDS011;55834;50.870;4.606;2023-04-15T13:30:41;3.63;;;1.77;;
68821;SDS011;55834;50.870;4.606;2023-04-15T13:33:08;3.90;;;2.15;;
68821;SDS011;55834;50.870;4.606;2023-04-15T13:35:33;2.40;;;2.20;;
68821;SDS011;55834;50.870;4.606;2023-04-15T13:37:59;2.65;;;1.83;;
68821;SDS011;55834;50.870;4.606;2023-04-15T13:40:24;2.42;;;2.22;;
68821;SDS011;55834;50.870;4.606;2023-04-15T13:42:50;4.93;;;2.13;;
68821;SDS011;55834;50.870;4.606;2023-04-15T13:45:16;2.78;;;1.65;;
68821;SDS011;55834;50.870;4.606;2023-04-15T13:47:41;3.38;;;2.22;;
68821;SDS011;55834;50.870;4.606;2023-04-15T13:50:06;2.53;;;1.75;;
68821;SDS011;55834;50.870;4.606;2023-04-15T13:52:32;2.22;;;2.03;;
68821;SDS011;55834;50.870;4.606;2023-04-15T13:54:57;3.33;;;3.10;;
68821;SDS011;55834;50.870;4.606;2023-04-15T13:57:23;3.53;;;2.50;;
68821;SDS011;55834;50.870;4.606;2023-04-15T13:59:49;2.17;;;1.80;;
68821;SDS011;55834;50.870;4.606;2023-04-15T14:02:14;2.53;;;2.00;;
68821;SDS011;55834;50.870;4.606;2023-04-15T14:04:40;2.40;;;1.10;;
68821;SDS011;55834;50.870;4.606;2023-04-15T14:07:06;2.42;;;1.55;;
68821;SDS011;55834;50.870;4.606;2023-04-15T14:09:31;3.00;;;1.52;;
68821;SDS011;55834;50.870;4.606;2023-04-15T14:11:56;1.67;;;1.30;;
68821;SDS011;55834;50.870;4.606;2023-04-15T14:14:23;7.78;;;2.22;;
68821;SDS011;55834;50.870;4.606;2023-04-15T14:16:49;3.30;;;2.00;;
68821;SDS011;55834;50.870;4.606;2023-04-15T14:19:14;2.95;;;2.17;;
68821;SDS011;55834;50.870;4.606;2023-04-15T14:21:40;1.88;;;1.20;;
68821;SDS011;55834;50.870;4.606;2023-04-15T14:24:05;2.08;;;1.05;;
68821;SDS011;55834;50.870;4.606;2023-04-15T14:26:31;1.67;;;0.93;;
68821;SDS011;55834;50.870;4.606;2023-04-15T14:28:56;2.20;;;1.00;;
68821;SDS011;55834;50.870;4.606;2023-04-15T14:31:22;1.30;;;1.10;;
68821;SDS011;55834;50.870;4.606;2023-04-15T14:33:47;3.27;;;1.10;;
68821;SDS011;55834;50.870;4.606;2023-04-15T14:36:12;1.07;;;0.97;;
68821;SDS011;55834;50.870;4.606;2023-04-15T14:38:38;1.90;;;1.13;;
68821;SDS011;55834;50.870;4.606;2023-04-15T14:41:04;2.20;;;1.30;;
68821;SDS011;55834;50.870;4.606;2023-04-15T14:43:30;2.05;;;1.60;;
68821;SDS011;55834;50.870;4.606;2023-04-15T14:45:56;1.70;;;1.60;;
68821;SDS011;55834;50.870;4.606;2023-04-15T14:48:21;3.53;;;1.57;;
68821;SDS011;55834;50.870;4.606;2023-04-15T14:50:46;1.50;;;1.40;;
68821;SDS011;55834;50.870;4.606;2023-04-15T14:53:12;1.87;;;1.37;;
68821;SDS011;55834;50.870;4.606;2023-04-15T14:55:37;1.35;;;1.17;;
68821;SDS011;55834;50.870;4.606;2023-04-15T14:58:03;1.15;;;1.00;;
68821;SDS011;55834;50.870;4.606;2023-04-15T15:00:28;3.67;;;1.35;;